sensor_id;sensor_type;location;lat;lon;timestamp;pressure;altitude;pressure_sealevel;temperature;humidity
33913;BME280;20200;52.084;5.224;2023-04-25T00:00:48;153362.0;;;18.25;37.33
33913;BME280;20200;52.084;5.224;2023-04-25T00:02:24;153443.0;;;18.57;36.14
33913;BME280;20200;52.084;5.224;2023-04-25T00:04:00;153426.0;;;18.5;36.6
33913;BME280;20200;52.084;5.224;2023-04-25T00:07:13;153456.0;;;18.62;36.53
33913;BME280;20200;52.084;5.224;2023-04-25T00:08:49;153445.0;;;18.59;36.65
33913;BME280;20200;52.084;5.224;2023-04-25T00:10:25;153164.0;;;17.46;38.78
33913;BME280;20200;52.084;5.224;2023-04-25T00:13:38;152918.0;;;16.5;41.09
33913;BME280;20200;52.084;5.224;2023-04-25T00:15:14;153039.0;;;16.97;40.72
33913;BME280;20200;52.084;5.224;2023-04-25T00:16:50;152887.0;;;16.37;41.73
33913;BME280;20200;52.084;5.224;2023-04-25T00:18:26;152936.0;;;16.56;41.31
33913;BME280;20200;52.084;5.224;2023-04-25T00:21:38;153023.0;;;16.9;40.81
33913;BME280;20200;52.084;5.224;2023-04-25T00:23:15;153250.0;;;17.81;39.54
33913;BME280;20200;52.084;5.224;2023-04-25T00:24:51;153147.0;;;17.41;39.82
33913;BME280;20200;52.084;5.224;2023-04-25T00:28:05;153207.0;;;17.63;38.67
33913;BME280;20200;52.084;5.224;2023-04-25T00:29:41;153268.0;;;17.88;38.31
33913;BME280;20200;52.084;5.224;2023-04-25T00:31:17;153209.0;;;17.64;38.47
33913;BME280;20200;52.084;5.224;2023-04-25T00:34:29;153357.0;;;18.23;37.67
33913;BME280;20200;52.084;5.224;2023-04-25T00:36:06;153118.0;;;17.28;39.01
33913;BME280;20200;52.084;5.224;2023-04-25T00:37:43;153195.0;;;17.59;38.39
33913;BME280;20200;52.084;5.224;2023-04-25T00:39:19;153331.0;;;18.13;37.53
33913;BME280;20200;52.084;5.224;2023-04-25T00:42:32;153203.0;;;17.62;38.0
33913;BME280;20200;52.084;5.224;2023-04-25T00:44:08;153354.0;;;18.22;36.96
33913;BME280;20200;52.084;5.224;2023-04-25T00:45:46;153383.0;;;18.34;36.83
33913;BME280;20200;52.084;5.224;2023-04-25T00:49:00;153313.0;;;18.06;37.57
33913;BME280;20200;52.084;5.224;2023-04-25T00:50:36;153375.0;;;18.3;37.06
33913;BME280;20200;52.084;5.224;2023-04-25T00:52:14;153290.0;;;17.96;37.07
33913;BME280;20200;52.084;5.224;2023-04-25T00:55:27;153470.0;;;18.68;36.4
33913;BME280;20200;52.084;5.224;2023-04-25T00:57:03;153434.0;;;18.54;36.51
33913;BME280;20200;52.084;5.224;2023-04-25T00:58:40;153472.0;;;18.68;36.25
33913;BME280;20200;52.084;5.224;2023-04-25T01:00:17;153463.0;;;18.66;36.21
33913;BME280;20200;52.084;5.224;2023-04-25T01:03:31;153469.0;;;18.68;36.14
33913;BME280;20200;52.084;5.224;2023-04-25T01:05:09;153458.0;;;18.63;36.03
33913;BME280;20200;52.084;5.224;2023-04-25T01:06:45;153552.0;;;19.0;35.53
33913;BME280;20200;52.084;5.224;2023-04-25T01:09:59;153509.0;;;18.84;35.85
33913;BME280;20200;52.084;5.224;2023-04-25T01:11:35;153529.0;;;18.91;35.4
33913;BME280;20200;52.084;5.224;2023-04-25T01:13:11;153534.0;;;18.93;35.42
33913;BME280;20200;52.084;5.224;2023-04-25T01:16:24;153619.0;;;19.27;34.9
33913;BME280;20200;52.084;5.224;2023-04-25T01:18:00;153554.0;;;19.02;35.19
33913;BME280;20200;52.084;5.224;2023-04-25T01:19:36;153565.0;;;19.05;35.14
33913;BME280;20200;52.084;5.224;2023-04-25T01:21:13;153432.0;;;18.53;35.85
33913;BME280;20200;52.084;5.224;2023-04-25T01:24:26;153559.0;;;19.03;35.07
33913;BME280;20200;52.084;5.224;2023-04-25T01:26:04;153485.0;;;18.75;35.49
33913;BME280;20200;52.084;5.224;2023-04-25T01:27:42;153520.0;;;18.88;35.36
33913;BME280;20200;52.084;5.224;2023-04-25T01:30:55;153445.0;;;18.59;35.78
33913;BME280;20200;52.084;5.224;2023-04-25T01:32:33;153404.0;;;18.41;36.18
33913;BME280;20200;52.084;5.224;2023-04-25T01:34:09;153386.0;;;18.34;36.15
33913;BME280;20200;52.084;5.224;2023-04-25T01:35:45;153468.0;;;18.68;35.65
33913;BME280;20200;52.084;5.224;2023-04-25T01:38:58;153397.0;;;18.39;35.93
33913;BME280;20200;52.084;5.224;2023-04-25T01:40:38;153387.0;;;18.36;35.9
33913;BME280;20200;52.084;5.224;2023-04-25T01:42:16;153465.0;;;18.66;35.54
33913;BME280;20200;52.084;5.224;2023-04-25T01:45:30;153341.0;;;18.18;36.1
33913;BME280;20200;52.084;5.224;2023-04-25T01:47:06;153432.0;;;18.53;35.78
33913;BME280;20200;52.084;5.224;2023-04-25T01:48:42;153446.0;;;18.59;35.58
33913;BME280;20200;52.084;5.224;2023-04-25T01:51:54;153433.0;;;18.53;35.69
33913;BME280;20200;52.084;5.224;2023-04-25T01:53:31;153423.0;;;18.5;35.82
33913;BME280;20200;52.084;5.224;2023-04-25T01:55:07;153432.0;;;18.53;35.75
33913;BME280;20200;52.084;5.224;2023-04-25T01:56:49;153305.0;;;18.03;36.53
33913;BME280;20200;52.084;5.224;2023-04-25T02:00:04;153416.0;;;18.46;35.92
33913;BME280;20200;52.084;5.224;2023-04-25T02:01:42;153366.0;;;18.27;36.25
33913;BME280;20200;52.084;5.224;2023-04-25T02:03:18;153289.0;;;17.96;36.93
33913;BME280;20200;52.084;5.224;2023-04-25T02:06:31;153356.0;;;18.23;36.43
33913;BME280;20200;52.084;5.224;2023-04-25T02:08:08;153485.0;;;18.75;35.46
33913;BME280;20200;52.084;5.224;2023-04-25T02:09:45;153372.0;;;18.29;36.35
33913;BME280;20200;52.084;5.224;2023-04-25T02:11:21;153323.0;;;18.11;36.78
33913;BME280;20200;52.084;5.224;2023-04-25T02:14:33;153335.0;;;18.14;36.44
33913;BME280;20200;52.084;5.224;2023-04-25T02:16:09;153348.0;;;18.2;36.61
33913;BME280;20200;52.084;5.224;2023-04-25T02:17:45;153341.0;;;18.18;36.67
33913;BME280;20200;52.084;5.224;2023-04-25T02:20:58;153291.0;;;17.97;36.87
33913;BME280;20200;52.084;5.224;2023-04-25T02:22:35;153309.0;;;18.04;36.85
33913;BME280;20200;52.084;5.224;2023-04-25T02:24:11;153312.0;;;18.05;36.69
33913;BME280;20200;52.084;5.224;2023-04-25T02:27:24;153320.0;;;18.09;36.46
33913;BME280;20200;52.084;5.224;2023-04-25T02:29:00;153293.0;;;17.97;36.62
33913;BME280;20200;52.084;5.224;2023-04-25T02:30:37;153275.0;;;17.91;36.6
33913;BME280;20200;52.084;5.224;2023-04-25T02:33:49;153278.0;;;17.93;36.5
33913;BME280;20200;52.084;5.224;2023-04-25T02:35:26;153257.0;;;17.84;36.81
33913;BME280;20200;52.084;5.224;2023-04-25T02:37:02;153114.0;;;17.27;37.58
33913;BME280;20200;52.084;5.224;2023-04-25T02:38:38;152968.0;;;16.68;38.71
33913;BME280;20200;52.084;5.224;2023-04-25T02:41:52;153206.0;;;17.63;37.28
33913;BME280;20200;52.084;5.224;2023-04-25T02:43:28;153175.0;;;17.52;37.14
33913;BME280;20200;52.084;5.224;2023-04-25T02:45:04;153343.0;;;18.18;36.29
33913;BME280;20200;52.084;5.224;2023-04-25T02:48:17;153230.0;;;17.73;37.17
33913;BME280;20200;52.084;5.224;2023-04-25T02:49:53;153308.0;;;18.04;36.6
33913;BME280;20200;52.084;5.224;2023-04-25T02:51:29;153381.0;;;18.34;36.12
33913;BME280;20200;52.084;5.224;2023-04-25T02:54:41;153218.0;;;17.68;37.03
33913;BME280;20200;52.084;5.224;2023-04-25T02:56:17;153337.0;;;18.16;36.07
33913;BME280;20200;52.084;5.224;2023-04-25T02:57:54;153194.0;;;17.59;36.9
33913;BME280;20200;52.084;5.224;2023-04-25T02:59:30;153302.0;;;18.02;36.17
33913;BME280;20200;52.084;5.224;2023-04-25T03:02:42;153350.0;;;18.2;35.76
33913;BME280;20200;52.084;5.224;2023-04-25T03:04:18;153391.0;;;18.37;35.54
33913;BME280;20200;52.084;5.224;2023-04-25T03:05:54;153413.0;;;18.45;35.56
33913;BME280;20200;52.084;5.224;2023-04-25T03:09:07;153185.0;;;17.55;37.03
33913;BME280;20200;52.084;5.224;2023-04-25T03:10:43;153160.0;;;17.45;37.17
33913;BME280;20200;52.084;5.224;2023-04-25T03:12:20;153182.0;;;17.53;37.0
33913;BME280;20200;52.084;5.224;2023-04-25T03:15:32;153143.0;;;17.38;37.01
33913;BME280;20200;52.084;5.224;2023-04-25T03:17:08;153221.0;;;17.7;36.74
33913;BME280;20200;52.084;5.224;2023-04-25T03:18:44;153214.0;;;17.66;36.96
33913;BME280;20200;52.084;5.224;2023-04-25T03:20:20;153257.0;;;17.84;36.46
33913;BME280;20200;52.084;5.224;2023-04-25T03:23:32;153213.0;;;17.66;36.69
33913;BME280;20200;52.084;5.224;2023-04-25T03:25:09;153110.0;;;17.25;37.44
33913;BME280;20200;52.084;5.224;2023-04-25T03:26:45;153266.0;;;17.87;36.39
33913;BME280;20200;52.084;5.224;2023-04-25T03:29:58;153175.0;;;17.52;36.79
33913;BME280;20200;52.084;5.224;2023-04-25T03:31:34;152652.0;;;15.43;40.56
33913;BME280;20200;52.084;5.224;2023-04-25T03:33:10;152437.0;;;14.58;42.35
33913;BME280;20200;52.084;5.224;2023-04-25T03:36:22;152480.0;;;14.75;42.37
33913;BME280;20200;52.084;5.224;2023-04-25T03:37:59;152489.0;;;14.78;41.91
33913;BME280;20200;52.084;5.224;2023-04-25T03:39:36;152435.0;;;14.57;42.39
33913;BME280;20200;52.084;5.224;2023-04-25T03:42:48;152788.0;;;15.97;40.07
33913;BME280;20200;52.084;5.224;2023-04-25T03:44:24;152859.0;;;16.25;38.33
33913;BME280;20200;52.084;5.224;2023-04-25T03:46:00;152951.0;;;16.62;37.24
33913;BME280;20200;52.084;5.224;2023-04-25T03:47:36;152953.0;;;16.63;37.19
33913;BME280;20200;52.084;5.224;2023-04-25T03:50:49;152967.0;;;16.68;36.96
33913;BME280;20200;52.084;5.224;2023-04-25T03:52:25;153103.0;;;17.22;35.78
33913;BME280;20200;52.084;5.224;2023-04-25T03:54:01;152956.0;;;16.64;36.85
33913;BME280;20200;52.084;5.224;2023-04-25T03:57:13;153060.0;;;17.05;36.22
33913;BME280;20200;52.084;5.224;2023-04-25T03:58:49;153188.0;;;17.56;35.46
33913;BME280;20200;52.084;5.224;2023-04-25T04:00:25;153166.0;;;17.47;35.04
33913;BME280;20200;52.084;5.224;2023-04-25T04:03:38;153155.0;;;17.43;35.29
33913;BME280;20200;52.084;5.224;2023-04-25T04:05:14;153272.0;;;17.89;35.17
33913;BME280;20200;52.084;5.224;2023-04-25T04:06:50;153264.0;;;17.86;35.54
33913;BME280;20200;52.084;5.224;2023-04-25T04:10:02;153237.0;;;17.77;34.99
33913;BME280;20200;52.084;5.224;2023-04-25T04:11:38;153225.0;;;17.71;34.89
33913;BME280;20200;52.084;5.224;2023-04-25T04:13:14;153305.0;;;18.03;34.39
33913;BME280;20200;52.084;5.224;2023-04-25T04:14:50;153366.0;;;18.27;33.96
33913;BME280;20200;52.084;5.224;2023-04-25T04:18:03;153214.0;;;17.66;34.33
33913;BME280;20200;52.084;5.224;2023-04-25T04:19:39;153314.0;;;18.06;33.87
33913;BME280;20200;52.084;5.224;2023-04-25T04:21:15;153327.0;;;18.11;33.72
33913;BME280;20200;52.084;5.224;2023-04-25T04:24:27;153064.0;;;17.07;35.33
33913;BME280;20200;52.084;5.224;2023-04-25T04:26:03;152873.0;;;16.31;36.85
33913;BME280;20200;52.084;5.224;2023-04-25T04:27:39;152733.0;;;15.75;37.67
33913;BME280;20200;52.084;5.224;2023-04-25T04:30:53;152895.0;;;16.39;36.74
33913;BME280;20200;52.084;5.224;2023-04-25T04:32:29;153005.0;;;16.84;36.06
33913;BME280;20200;52.084;5.224;2023-04-25T04:34:05;152926.0;;;16.52;36.36
33913;BME280;20200;52.084;5.224;2023-04-25T04:35:41;152898.0;;;16.41;36.87
33913;BME280;20200;52.084;5.224;2023-04-25T04:38:54;152931.0;;;16.54;36.71
33913;BME280;20200;52.084;5.224;2023-04-25T04:40:30;152893.0;;;16.39;36.86
33913;BME280;20200;52.084;5.224;2023-04-25T04:42:06;152955.0;;;16.64;36.54
33913;BME280;20200;52.084;5.224;2023-04-25T04:45:19;152992.0;;;16.78;36.37
33913;BME280;20200;52.084;5.224;2023-04-25T04:46:55;152722.0;;;15.71;38.14
33913;BME280;20200;52.084;5.224;2023-04-25T04:48:31;152878.0;;;16.34;37.35
33913;BME280;20200;52.084;5.224;2023-04-25T04:51:46;152950.0;;;16.62;36.78
33913;BME280;20200;52.084;5.224;2023-04-25T04:53:22;153139.0;;;17.36;35.78
33913;BME280;20200;52.084;5.224;2023-04-25T04:54:58;153094.0;;;17.2;35.99
33913;BME280;20200;52.084;5.224;2023-04-25T04:56:35;152988.0;;;16.77;36.67
33913;BME280;20200;52.084;5.224;2023-04-25T04:59:47;153152.0;;;17.43;35.6
33913;BME280;20200;52.084;5.224;2023-04-25T05:01:24;153202.0;;;17.61;35.36
33913;BME280;20200;52.084;5.224;2023-04-25T05:03:00;153109.0;;;17.25;36.11
33913;BME280;20200;52.084;5.224;2023-04-25T05:06:13;152982.0;;;16.75;36.92
33913;BME280;20200;52.084;5.224;2023-04-25T05:07:49;153084.0;;;17.16;36.31
33913;BME280;20200;52.084;5.224;2023-04-25T05:09:25;153175.0;;;17.52;36.07
33913;BME280;20200;52.084;5.224;2023-04-25T05:12:38;153215.0;;;17.68;35.72
33913;BME280;20200;52.084;5.224;2023-04-25T05:14:14;153212.0;;;17.66;35.72
33913;BME280;20200;52.084;5.224;2023-04-25T05:15:50;153321.0;;;18.09;35.01
33913;BME280;20200;52.084;5.224;2023-04-25T05:19:03;153240.0;;;17.77;35.46
33913;BME280;20200;52.084;5.224;2023-04-25T05:20:39;153194.0;;;17.59;36.06
33913;BME280;20200;52.084;5.224;2023-04-25T05:22:15;153035.0;;;16.95;36.83
33913;BME280;20200;52.084;5.224;2023-04-25T05:23:51;153069.0;;;17.09;37.35
33913;BME280;20200;52.084;5.224;2023-04-25T05:27:03;152816.0;;;16.09;38.37
33913;BME280;20200;52.084;5.224;2023-04-25T05:28:40;152981.0;;;16.75;36.99
33913;BME280;20200;52.084;5.224;2023-04-25T05:30:15;152755.0;;;15.84;38.0
33913;BME280;20200;52.084;5.224;2023-04-25T05:33:28;152740.0;;;15.78;38.12
33913;BME280;20200;52.084;5.224;2023-04-25T05:35:05;153025.0;;;16.91;36.54
33913;BME280;20200;52.084;5.224;2023-04-25T05:36:41;153060.0;;;17.05;35.89
33913;BME280;20200;52.084;5.224;2023-04-25T05:39:53;153144.0;;;17.39;35.49
33913;BME280;20200;52.084;5.224;2023-04-25T05:41:29;153096.0;;;17.2;36.03
33913;BME280;20200;52.084;5.224;2023-04-25T05:43:06;153272.0;;;17.89;34.92
33913;BME280;20200;52.084;5.224;2023-04-25T05:44:42;152952.0;;;16.62;36.28
33913;BME280;20200;52.084;5.224;2023-04-25T05:47:54;153153.0;;;17.43;35.11
33913;BME280;20200;52.084;5.224;2023-04-25T05:49:30;153001.0;;;16.82;35.85
33913;BME280;20200;52.084;5.224;2023-04-25T05:51:06;153127.0;;;17.32;35.26
33913;BME280;20200;52.084;5.224;2023-04-25T05:54:20;153227.0;;;17.72;34.35
33913;BME280;20200;52.084;5.224;2023-04-25T05:55:55;153341.0;;;18.18;33.87
33913;BME280;20200;52.084;5.224;2023-04-25T05:57:31;153380.0;;;18.32;33.46
33913;BME280;20200;52.084;5.224;2023-04-25T06:00:43;153191.0;;;17.57;34.35
33913;BME280;20200;52.084;5.224;2023-04-25T06:02:20;153342.0;;;18.18;33.61
33913;BME280;20200;52.084;5.224;2023-04-25T06:03:57;153305.0;;;18.03;33.64
33913;BME280;20200;52.084;5.224;2023-04-25T06:07:09;153209.0;;;17.64;34.46
33913;BME280;20200;52.084;5.224;2023-04-25T06:08:45;153155.0;;;17.43;34.65
33913;BME280;20200;52.084;5.224;2023-04-25T06:10:22;153297.0;;;18.0;33.68
33913;BME280;20200;52.084;5.224;2023-04-25T06:11:57;153250.0;;;17.81;34.17
33913;BME280;20200;52.084;5.224;2023-04-25T06:15:10;153347.0;;;18.2;33.55
33913;BME280;20200;52.084;5.224;2023-04-25T06:16:46;153373.0;;;18.29;33.49
33913;BME280;20200;52.084;5.224;2023-04-25T06:18:22;153326.0;;;18.11;33.67
33913;BME280;20200;52.084;5.224;2023-04-25T06:21:34;153436.0;;;18.54;33.25
33913;BME280;20200;52.084;5.224;2023-04-25T06:23:11;153409.0;;;18.45;33.15
33913;BME280;20200;52.084;5.224;2023-04-25T06:24:47;153215.0;;;17.68;34.21
33913;BME280;20200;52.084;5.224;2023-04-25T06:28:00;153243.0;;;17.78;33.8
33913;BME280;20200;52.084;5.224;2023-04-25T06:29:36;153608.0;;;19.22;32.28
33913;BME280;20200;52.084;5.224;2023-04-25T06:31:12;153414.0;;;18.46;33.1
33913;BME280;20200;52.084;5.224;2023-04-25T06:32:48;153352.0;;;18.21;32.89
33913;BME280;20200;52.084;5.224;2023-04-25T06:36:00;153512.0;;;18.84;32.67
33913;BME280;20200;52.084;5.224;2023-04-25T06:37:36;153472.0;;;18.7;32.86
33913;BME280;20200;52.084;5.224;2023-04-25T06:39:13;153248.0;;;17.8;34.05
33913;BME280;20200;52.084;5.224;2023-04-25T06:42:25;153129.0;;;17.34;34.21
33913;BME280;20200;52.084;5.224;2023-04-25T06:44:01;153347.0;;;18.2;33.0
33913;BME280;20200;52.084;5.224;2023-04-25T06:45:37;153309.0;;;18.04;33.64
33913;BME280;20200;52.084;5.224;2023-04-25T06:48:50;153336.0;;;18.14;33.26
33913;BME280;20200;52.084;5.224;2023-04-25T06:50:26;153102.0;;;17.22;34.82
33913;BME280;20200;52.084;5.224;2023-04-25T06:52:03;153307.0;;;18.03;33.64
33913;BME280;20200;52.084;5.224;2023-04-25T06:55:16;153393.0;;;18.37;33.05
33913;BME280;20200;52.084;5.224;2023-04-25T06:56:52;153588.0;;;19.14;32.14
33913;BME280;20200;52.084;5.224;2023-04-25T06:58:28;153348.0;;;18.2;33.21
33913;BME280;20200;52.084;5.224;2023-04-25T07:00:05;153354.0;;;18.22;33.87
33913;BME280;20200;52.084;5.224;2023-04-25T07:03:20;153422.0;;;18.5;33.64
33913;BME280;20200;52.084;5.224;2023-04-25T07:04:56;153414.0;;;18.46;33.6
33913;BME280;20200;52.084;5.224;2023-04-25T07:06:33;153207.0;;;17.64;34.35
33913;BME280;20200;52.084;5.224;2023-04-25T07:09:45;153212.0;;;17.66;34.32
33913;BME280;20200;52.084;5.224;2023-04-25T07:11:21;153342.0;;;18.18;33.79
33913;BME280;20200;52.084;5.224;2023-04-25T07:12:57;153383.0;;;18.34;33.33
33913;BME280;20200;52.084;5.224;2023-04-25T07:16:10;153217.0;;;17.68;33.6
33913;BME280;20200;52.084;5.224;2023-04-25T07:17:46;153243.0;;;17.78;33.39
33913;BME280;20200;52.084;5.224;2023-04-25T07:19:22;153189.0;;;17.56;33.89
33913;BME280;20200;52.084;5.224;2023-04-25T07:20:58;153238.0;;;17.77;33.36
33913;BME280;20200;52.084;5.224;2023-04-25T07:24:10;153263.0;;;17.86;33.21
33913;BME280;20200;52.084;5.224;2023-04-25T07:25:47;153656.0;;;19.43;31.56
33913;BME280;20200;52.084;5.224;2023-04-25T07:27:22;153678.0;;;19.5;31.54
33913;BME280;20200;52.084;5.224;2023-04-25T07:30:35;153456.0;;;18.62;32.42
33913;BME280;20200;52.084;5.224;2023-04-25T07:32:11;153542.0;;;18.96;31.79
33913;BME280;20200;52.084;5.224;2023-04-25T07:33:47;153524.0;;;18.89;31.98
33913;BME280;20200;52.084;5.224;2023-04-25T07:36:59;153330.0;;;18.12;32.83
33913;BME280;20200;52.084;5.224;2023-04-25T07:38:35;153483.0;;;18.73;31.86
33913;BME280;20200;52.084;5.224;2023-04-25T07:40:12;153488.0;;;18.75;31.71
33913;BME280;20200;52.084;5.224;2023-04-25T07:43:25;153542.0;;;18.96;31.38
33913;BME280;20200;52.084;5.224;2023-04-25T07:45:01;153438.0;;;18.55;31.46
33913;BME280;20200;52.084;5.224;2023-04-25T07:46:37;153418.0;;;18.47;31.73
33913;BME280;20200;52.084;5.224;2023-04-25T07:48:16;153476.0;;;18.7;31.7
33913;BME280;20200;52.084;5.224;2023-04-25T07:51:29;153650.0;;;19.39;30.5
33913;BME280;20200;52.084;5.224;2023-04-25T07:53:05;153562.0;;;19.04;30.45
33913;BME280;20200;52.084;5.224;2023-04-25T07:54:42;153425.0;;;18.5;30.45
33913;BME280;20200;52.084;5.224;2023-04-25T07:57:54;153473.0;;;18.7;29.66
33913;BME280;20200;52.084;5.224;2023-04-25T07:59:30;153429.0;;;18.52;29.66
33913;BME280;20200;52.084;5.224;2023-04-25T08:01:06;153575.0;;;19.09;29.17
33913;BME280;20200;52.084;5.224;2023-04-25T08:04:18;153362.0;;;18.25;29.9
33913;BME280;20200;52.084;5.224;2023-04-25T08:05:54;153663.0;;;19.45;29.01
33913;BME280;20200;52.084;5.224;2023-04-25T08:07:30;153476.0;;;18.7;29.47
33913;BME280;20200;52.084;5.224;2023-04-25T08:09:07;153339.0;;;18.16;29.86
33913;BME280;20200;52.084;5.224;2023-04-25T08:12:19;153318.0;;;18.07;29.85
33913;BME280;20200;52.084;5.224;2023-04-25T08:13:55;153500.0;;;18.8;29.15
33913;BME280;20200;52.084;5.224;2023-04-25T08:15:31;153538.0;;;18.95;28.94
33913;BME280;20200;52.084;5.224;2023-04-25T08:18:44;153539.0;;;18.95;28.74
33913;BME280;20200;52.084;5.224;2023-04-25T08:20:21;153709.0;;;19.63;28.42
33913;BME280;20200;52.084;5.224;2023-04-25T08:21:57;153793.0;;;19.96;28.01
33913;BME280;20200;52.084;5.224;2023-04-25T08:25:09;153687.0;;;19.54;28.25
33913;BME280;20200;52.084;5.224;2023-04-25T08:26:45;153543.0;;;18.97;28.85
33913;BME280;20200;52.084;5.224;2023-04-25T08:28:21;153633.0;;;19.32;28.57
33913;BME280;20200;52.084;5.224;2023-04-25T08:31:34;153615.0;;;19.25;28.46
33913;BME280;20200;52.084;5.224;2023-04-25T08:33:10;153614.0;;;19.25;28.76
33913;BME280;20200;52.084;5.224;2023-04-25T08:34:46;153780.0;;;19.91;28.15
33913;BME280;20200;52.084;5.224;2023-04-25T08:36:22;153537.0;;;18.95;29.72
33913;BME280;20200;52.084;5.224;2023-04-25T08:39:34;153311.0;;;18.05;30.83
33913;BME280;20200;52.084;5.224;2023-04-25T08:41:11;153433.0;;;18.53;30.25
33913;BME280;20200;52.084;5.224;2023-04-25T08:42:48;153388.0;;;18.36;29.88
33913;BME280;20200;52.084;5.224;2023-04-25T08:46:02;153545.0;;;18.98;29.65
33913;BME280;20200;52.084;5.224;2023-04-25T08:47:39;153253.0;;;17.82;30.6
33913;BME280;20200;52.084;5.224;2023-04-25T08:49:16;153404.0;;;18.41;29.67
33913;BME280;20200;52.084;5.224;2023-04-25T08:50:55;153405.0;;;18.43;29.59
33913;BME280;20200;52.084;5.224;2023-04-25T08:54:13;153375.0;;;18.3;29.08
33913;BME280;20200;52.084;5.224;2023-04-25T08:55:52;153289.0;;;17.96;29.64
33913;BME280;20200;52.084;5.224;2023-04-25T08:57:31;153503.0;;;18.81;29.12
33913;BME280;20200;52.084;5.224;2023-04-25T09:00:43;153662.0;;;19.45;28.82
33913;BME280;20200;52.084;5.224;2023-04-25T09:02:21;153448.0;;;18.59;29.36
33913;BME280;20200;52.084;5.224;2023-04-25T09:03:57;153602.0;;;19.2;28.66
33913;BME280;20200;52.084;5.224;2023-04-25T09:05:34;153375.0;;;18.3;29.2
33913;BME280;20200;52.084;5.224;2023-04-25T09:08:46;153425.0;;;18.5;29.23
33913;BME280;20200;52.084;5.224;2023-04-25T09:10:26;153563.0;;;19.05;28.14
33913;BME280;20200;52.084;5.224;2023-04-25T09:12:03;153420.0;;;18.48;28.59
33913;BME280;20200;52.084;5.224;2023-04-25T09:15:16;153458.0;;;18.63;26.36
33913;BME280;20200;52.084;5.224;2023-04-25T09:17:01;153328.0;;;18.11;26.38
33913;BME280;20200;52.084;5.224;2023-04-25T09:18:37;153450.0;;;18.59;26.09
33913;BME280;20200;52.084;5.224;2023-04-25T09:20:13;153400.0;;;18.41;25.53
33913;BME280;20200;52.084;5.224;2023-04-25T09:23:27;153398.0;;;18.39;25.94
33913;BME280;20200;52.084;5.224;2023-04-25T09:25:07;153630.0;;;19.31;25.36
33913;BME280;20200;52.084;5.224;2023-04-25T09:26:44;153585.0;;;19.13;25.29
33913;BME280;20200;52.084;5.224;2023-04-25T09:30:00;153734.0;;;19.73;25.7
33913;BME280;20200;52.084;5.224;2023-04-25T09:31:36;153775.0;;;19.89;25.91
33913;BME280;20200;52.084;5.224;2023-04-25T09:33:13;153660.0;;;19.43;24.83
33913;BME280;20200;52.084;5.224;2023-04-25T09:34:51;153573.0;;;19.09;26.25
33913;BME280;20200;52.084;5.224;2023-04-25T09:38:08;153651.0;;;19.41;26.63
33913;BME280;20200;52.084;5.224;2023-04-25T09:39:44;153594.0;;;19.18;27.18
33913;BME280;20200;52.084;5.224;2023-04-25T09:41:23;153766.0;;;19.86;26.24
33913;BME280;20200;52.084;5.224;2023-04-25T09:44:35;153686.0;;;19.53;27.41
33913;BME280;20200;52.084;5.224;2023-04-25T09:46:12;153660.0;;;19.43;28.16
33913;BME280;20200;52.084;5.224;2023-04-25T09:47:49;153550.0;;;19.0;28.33
33913;BME280;20200;52.084;5.224;2023-04-25T09:51:04;153517.0;;;18.87;28.47
33913;BME280;20200;52.084;5.224;2023-04-25T09:52:43;153610.0;;;19.25;28.17
33913;BME280;20200;52.084;5.224;2023-04-25T09:54:19;153690.0;;;19.55;28.61
33913;BME280;20200;52.084;5.224;2023-04-25T09:55:55;153814.0;;;20.04;28.36
33913;BME280;20200;52.084;5.224;2023-04-25T09:59:09;153677.0;;;19.5;28.92
33913;BME280;20200;52.084;5.224;2023-04-25T10:00:47;153764.0;;;19.84;28.36
33913;BME280;20200;52.084;5.224;2023-04-25T10:02:26;153867.0;;;20.25;27.74
33913;BME280;20200;52.084;5.224;2023-04-25T10:05:43;153543.0;;;18.97;28.55
33913;BME280;20200;52.084;5.224;2023-04-25T10:07:20;153672.0;;;19.48;28.35
33913;BME280;20200;52.084;5.224;2023-04-25T10:08:58;153667.0;;;19.46;28.71
33913;BME280;20200;52.084;5.224;2023-04-25T10:10:35;153724.0;;;19.7;27.86
33913;BME280;20200;52.084;5.224;2023-04-25T10:13:50;153676.0;;;19.5;27.98
33913;BME280;20200;52.084;5.224;2023-04-25T10:15:26;153784.0;;;19.93;27.66
33913;BME280;20200;52.084;5.224;2023-04-25T10:17:03;153845.0;;;20.18;27.15
33913;BME280;20200;52.084;5.224;2023-04-25T10:20:15;153508.0;;;18.84;28.05
33913;BME280;20200;52.084;5.224;2023-04-25T10:21:54;153668.0;;;19.46;28.11
33913;BME280;20200;52.084;5.224;2023-04-25T10:23:34;153704.0;;;19.61;28.22
33913;BME280;20200;52.084;5.224;2023-04-25T10:25:12;153540.0;;;18.96;28.87
33913;BME280;20200;52.084;5.224;2023-04-25T10:28:26;153755.0;;;19.81;28.43
33913;BME280;20200;52.084;5.224;2023-04-25T10:30:03;153425.0;;;18.5;28.86
33913;BME280;20200;52.084;5.224;2023-04-25T10:31:46;153358.0;;;18.23;29.04
33913;BME280;20200;52.084;5.224;2023-04-25T10:35:13;153543.0;;;18.97;28.09
33913;BME280;20200;52.084;5.224;2023-04-25T10:36:50;153436.0;;;18.54;28.33
33913;BME280;20200;52.084;5.224;2023-04-25T10:38:27;153241.0;;;17.77;29.31
33913;BME280;20200;52.084;5.224;2023-04-25T10:40:08;153268.0;;;17.88;28.68
33913;BME280;20200;52.084;5.224;2023-04-25T10:43:36;153586.0;;;19.14;27.0
33913;BME280;20200;52.084;5.224;2023-04-25T10:45:15;153590.0;;;19.16;26.75
33913;BME280;20200;52.084;5.224;2023-04-25T10:46:51;153658.0;;;19.43;26.06
33913;BME280;20200;52.084;5.224;2023-04-25T10:48:28;153479.0;;;18.71;26.15
33913;BME280;20200;52.084;5.224;2023-04-25T10:51:43;153608.0;;;19.22;25.33
33913;BME280;20200;52.084;5.224;2023-04-25T10:53:24;153519.0;;;18.87;26.06
33913;BME280;20200;52.084;5.224;2023-04-25T10:55:02;153782.0;;;19.91;25.04
33913;BME280;20200;52.084;5.224;2023-04-25T10:56:41;153529.0;;;18.91;25.67
33913;BME280;20200;52.084;5.224;2023-04-25T11:00:00;153564.0;;;19.05;25.1
33913;BME280;20200;52.084;5.224;2023-04-25T11:01:42;153735.0;;;19.73;25.12
33913;BME280;20200;52.084;5.224;2023-04-25T11:03:21;153856.0;;;20.21;24.55
33913;BME280;20200;52.084;5.224;2023-04-25T11:04:58;153932.0;;;20.51;24.28